M I D A S
Marine Information and Data Acquisition System
Tripno 1623 of the Zeeleeuw from 2008-12-19 08:01:44 to 2008-12-19 15:37:09
Back to CruiseResearch ActivitiesStationsMapUnderway DataData graphs

EquipmentUnitsComment
TimeDGPSUTC
LatitudeDGPSDM.mWGS84
LongitudeDGPSDM.mWGS84
TemperatureSBE03/SBE38deg celciusITS90
ConductivitySBE21S/mITS90
SalinitySBE21 Practical Salinity Units
ChlorophylAChelsea fluorimeterg/lCalibrated in Aceton
Missing or incorrect values are displayed as -999
Sea surface data collected by the RV Zeeleeuw from 2008-12-19 07:58:03 to 2008-12-19 15:40:02
Time Latitude Longitude Temperature Conductivity Salinity ChlorophylA
2008-12-19 07:59:08 51°13.663 2°55.937 -999 0.044472 0.235665 -1.244337
2008-12-19 08:00:09 51°13.683 2°55.845 -999 0.045706 0.242355 -1.244337
2008-12-19 08:01:08 51°13.707 2°55.752 -999 0.055997 0.298418 -1.244337
2008-12-19 08:02:07 51°13.706 2°55.758 -999 0.043854 0.232313 -1.244337
2008-12-19 08:03:08 51°13.709 2°55.755 -999 0.045089 0.239037 -1.244337
2008-12-19 08:04:08 51°13.696 2°55.759 -999 0.051572 0.274221 -1.244337
2008-12-19 08:05:07 51°13.758 2°55.707 -999 0.038194 0.201814 -1.244337
2008-12-19 08:06:05 51°13.861 2°55.614 -999 0.037988 0.200706 -1.244337
2008-12-19 08:07:05 51°13.974 2°55.525 -999 0.037268 0.196869 -1.244337
2008-12-19 08:08:05 51°14.099 2°55.422 -999 0.036342 0.191898 -1.209513
2008-12-19 08:09:05 51°14.224 2°55.299 -999 0.038915 0.205683 -1.244337
2008-12-19 08:10:05 51°14.323 2°55.12 -999 0.043031 0.227667 -1.244337
2008-12-19 08:11:05 51°14.42 2°54.901 -999 0.042208 0.223386 -1.209513
2008-12-19 08:12:05 51°14.578 2°54.724 -999 0.037474 0.198055 -1.209513
2008-12-19 08:13:05 51°14.749 2°54.567 -999 0.034695 0.183567 -1.209513
2008-12-19 08:14:05 51°14.925 2°54.423 -999 0.038297 0.203131 -1.209513
2008-12-19 08:15:05 51°15.102 2°54.276 -999 0.034387 0.181829 -1.209513
2008-12-19 08:16:05 51°15.275 2°54.116 -999 0.036651 0.194308 -1.209513
2008-12-19 08:17:05 51°15.445 2°53.952 -999 0.036239 0.192225 -1.209513
2008-12-19 08:18:05 51°15.62 2°53.814 -999 0.03593 0.190455 -1.209513
2008-12-19 08:19:05 51°15.801 2°53.686 -999 0.034078 0.180533 -1.174688
2008-12-19 08:20:05 51°15.979 2°53.548 -999 0.03521 0.186807 -1.209513
2008-12-19 08:21:05 51°16.158 2°53.408 -999 0.034387 0.182539 -1.209513
2008-12-19 08:22:05 51°16.335 2°53.266 -999 0.03593 0.19054 -1.209513
2008-12-19 08:23:05 51°16.51 2°53.122 -999 0.033666 0.17851 -1.209513
2008-12-19 08:24:05 51°16.685 2°52.976 -999 0.036342 0.192767 -1.174688
2008-12-19 08:25:05 51°16.857 2°52.832 -999 0.033049 0.175277 -1.209513
2008-12-19 08:26:05 51°17.033 2°52.683 -999 0.032946 0.174716 -1.209513
2008-12-19 08:27:05 51°17.206 2°52.536 -999 0.036342 0.192982 -1.174688
2008-12-19 08:28:05 51°17.383 2°52.399 -999 0.035107 0.186385 -1.209513
2008-12-19 08:29:05 51°17.567 2°52.273 -999 0.035724 0.18961 -1.174688
2008-12-19 08:30:05 51°17.749 2°52.142 -999 0.036445 0.193551 -1.174688
2008-12-19 08:31:05 51°17.929 2°52.002 -999 0.036239 0.192378 -1.139864
2008-12-19 08:32:05 51°18.109 2°51.866 -999 0.03593 0.190768 -1.174688
2008-12-19 08:33:05 51°18.285 2°51.729 -999 0.039841 0.211836 -1.174688
2008-12-19 08:34:05 51°18.465 2°51.585 -999 0.03449 0.183048 -1.174688
2008-12-19 08:35:05 51°18.648 2°51.441 -999 0.040355 0.214615 -1.174688
2008-12-19 08:36:05 51°18.824 2°51.306 -999 0.040252 0.214124 -1.174688
2008-12-19 08:37:05 51°18.998 2°51.171 -999 0.039326 0.209091 -1.174688
2008-12-19 08:38:05 51°19.173 2°51.032 -999 0.035724 0.189701 -1.174688
2008-12-19 08:39:05 51°19.35 2°50.894 -999 0.038503 0.204685 -1.174688
2008-12-19 08:40:05 51°19.525 2°50.754 -999 0.033872 0.17981 -1.174688
2008-12-19 08:41:05 51°19.701 2°50.605 -999 0.03274 0.173777 -1.174688
2008-12-19 08:42:05 51°19.884 2°50.48 -999 0.031299 0.166084 -1.174688
2008-12-19 08:43:05 51°20.072 2°50.371 -999 0.033563 0.178198 -1.174688
2008-12-19 08:44:05 51°20.258 2°50.262 -999 0.036754 0.195298 -1.244337
2008-12-19 08:45:05 51°20.445 2°50.154 -999 0.031197 0.165549 -1.279161
2008-12-19 08:46:05 51°20.634 2°50.045 -999 0.032637 0.173249 -1.279161
2008-12-19 08:47:05 51°20.829 2°49.992 -999 0.039635 0.210867 -1.139864
2008-12-19 08:48:05 51°21.025 2°50.053 -999 0.036754 0.195377 -1.10504
2008-12-19 08:49:05 51°21.222 2°50.135 -999 0.036136 0.192024 -1.10504
2008-12-19 08:50:05 51°21.419 2°50.208 -999 0.05785 0.310347 -1.000568
2008-12-19 08:51:05 51°21.619 2°50.244 -999 0.040047 0.213134 -0.965744
2008-12-19 08:52:05 51°21.819 2°50.264 -999 0.040664 0.216484 -0.965744
2008-12-19 08:53:05 51°22.019 2°50.266 -999 0.046118 0.246105 -1.000568
2008-12-19 08:54:05 51°22.223 2°50.263 -999 0.033563 0.178236 -0.965744
2008-12-19 08:55:05 51°22.427 2°50.266 -999 0.033975 0.180519 -1.000568
2008-12-19 08:56:05 51°22.631 2°50.27 -999 0.03521 0.18713 -0.93092
2008-12-19 08:57:05 51°22.834 2°50.273 -999 0.036033 0.191547 -0.93092
2008-12-19 08:58:05 51°23.038 2°50.275 -999 0.035827 0.190422 -0.93092
2008-12-19 08:59:05 51°23.238 2°50.279 -999 0.039017 0.207659 -0.826448
2008-12-19 09:00:05 51°23.437 2°50.285 -999 0.036651 0.19492 -0.93092
2008-12-19 09:01:05 51°23.637 2°50.288 -999 0.037474 0.199345 -0.93092
2008-12-19 09:02:05 51°23.836 2°50.29 -999 0.033152 0.176106 -0.93092
2008-12-19 09:03:05 51°24.038 2°50.288 -999 0.036548 0.19437 -0.965744
2008-12-19 09:04:05 51°24.234 2°50.292 -999 0.043545 0.232251 -0.965744
2008-12-19 09:05:05 51°24.435 2°50.293 -999 0.046221 0.246825 -0.965744
2008-12-19 09:06:05 51°24.634 2°50.294 -999 0.040252 0.214416 -0.965744
2008-12-19 09:07:05 51°24.834 2°50.294 -999 0.033152 0.176193 -0.826448
2008-12-19 09:08:05 51°25.03 2°50.294 -999 0.039223 0.208872 -0.791624
2008-12-19 09:09:05 51°25.232 2°50.291 -999 0.043751 0.233377 -0.861272
2008-12-19 09:10:05 51°25.437 2°50.292 -999 0.039326 0.209435 -0.826448
2008-12-19 09:11:05 51°25.642 2°50.294 -999 0.037371 0.198913 -0.826448
2008-12-19 09:12:05 51°25.846 2°50.294 -999 0.037371 0.1989 -0.93092
2008-12-19 09:13:05 51°26.049 2°50.294 -999 0.043751 0.233512 -0.93092
2008-12-19 09:14:05 51°26.253 2°50.295 -999 0.048485 0.259316 -0.93092
2008-12-19 09:15:05 51°26.434 2°50.36 -999 0.050543 0.270643 -0.93092
2008-12-19 09:16:05 51°26.529 2°50.627 -999 0.053322 0.285931 -0.861272
2008-12-19 09:17:05 51°26.637 2°50.894 -999 0.055792 0.299465 -0.965744
2008-12-19 09:18:05 51°26.737 2°51.17 -999 0.075859 0.411116 -0.93092
2008-12-19 09:19:05 51°26.831 2°51.451 -999 0.071948 0.389159 -0.93092
2008-12-19 09:20:05 51°26.926 2°51.731 -999 0.059188 0.318264 -0.93092
2008-12-19 09:21:05 51°27.024 2°52.008 -999 0.130816 0.724533 -0.93092
2008-12-19 09:22:05 51°27.119 2°52.286 -999 0.152018 0.84795 -0.965744
2008-12-19 09:23:05 51°27.217 2°52.563 -999 0.111056 0.610953 -0.93092
2008-12-19 09:24:05 51°27.312 2°52.842 -999 0.082857 0.450726 -0.93092
2008-12-19 09:25:05 51°27.408 2°53.119 -999 0.064539 0.348075 -0.93092
2008-12-19 09:26:05 51°27.504 2°53.399 -999 0.188248 1.061573 -0.93092
2008-12-19 09:27:05 51°27.602 2°53.679 -999 0.529242 3.170576 -0.861272
2008-12-19 09:28:05 51°27.696 2°53.961 -999 0.05929 0.319021 -0.861272
2008-12-19 09:29:05 51°27.789 2°54.244 -999 0.077506 0.420572 -0.826448
2008-12-19 09:30:05 51°27.888 2°54.523 -999 0.06351 0.342542 -0.861272
2008-12-19 09:31:05 51°27.992 2°54.796 -999 0.369532 2.164369 -0.826448
2008-12-19 09:32:05 51°28.094 2°55.073 -999 0.059188 0.318578 -0.826448
2008-12-19 09:33:05 51°28.197 2°55.35 -999 0.062378 0.33625 -0.791624
2008-12-19 09:34:05 51°28.301 2°55.629 -999 0.403921 2.378989 -0.7568
2008-12-19 09:35:05 51°28.403 2°55.908 -999 0.048794 0.261357 -0.7568
2008-12-19 09:36:05 51°28.508 2°56.18 -999 1.062039 6.693878 -0.7568
2008-12-19 09:37:05 51°28.609 2°56.459 -999 0.07164 0.387995 -0.652328
2008-12-19 09:38:05 51°28.712 2°56.739 -999 0.075139 0.407605 -0.721976
2008-12-19 09:39:05 51°28.815 2°57.014 -999 0.216143 1.228333 -0.687152
2008-12-19 09:40:05 51°28.917 2°57.291 -999 0.076477 0.415143 -0.721976
2008-12-19 09:41:05 51°29.023 2°57.567 -999 0.07164 0.388022 -0.687152
2008-12-19 09:42:05 51°29.127 2°57.843 -999 0.383741 2.253992 -0.687152
2008-12-19 09:43:05 51°29.231 2°58.117 -999 0.071434 0.386924 -0.652328
2008-12-19 09:44:05 51°29.335 2°58.392 -999 0.099324 0.544504 -0.652328
2008-12-19 09:45:05 51°29.439 2°58.667 -999 0.086871 0.473856 -0.617504
2008-12-19 09:46:05 51°29.542 2°58.94 -999 0.079049 0.429749 -0.617504
2008-12-19 09:47:05 51°29.644 2°59.216 -999 0.092017 0.503037 -0.617504
2008-12-19 09:48:05 51°29.747 2°59.487 -999 0.20235 1.146649 -0.617504
2008-12-19 09:49:05 51°29.846 2°59.762 -999 1.266704 8.101085 -0.617504
2008-12-19 09:50:05 51°29.947 3°0.034 -999 0.071022 0.384803 -0.652328
2008-12-19 09:51:05 51°30.046 3°0.307 -999 0.118157 0.652784 -0.652328
2008-12-19 09:52:05 51°30.145 3°0.579 -999 0.477237 2.843682 -0.687152
2008-12-19 09:53:05 51°30.246 3°0.847 -999 0.514104 3.078737 -0.721976
2008-12-19 09:54:05 51°30.349 3°1.113 -999 1.09678 6.936005 -0.721976
2008-12-19 09:55:05 51°30.446 3°1.385 -999 0.071331 0.386564 -0.721976
2008-12-19 09:56:05 51°30.545 3°1.654 -999 0.102102 0.560793 -0.687152
2008-12-19 09:57:05 51°30.642 3°1.925 -999 0.325571 1.895055 -0.687152
2008-12-19 09:58:05 51°30.74 3°2.196 -999 0.107968 0.594456 -0.721976
2008-12-19 09:59:05 51°30.843 3°2.457 -999 0.077712 0.422504 -0.652328
2008-12-19 10:00:05 51°30.947 3°2.72 -999 0.07164 0.388422 -0.687152
2008-12-19 10:01:05 51°31.052 3°2.983 -999 0.112188 0.618734 -0.687152
2008-12-19 10:02:05 51°31.156 3°3.252 -999 0.089032 0.486606 -0.721976
2008-12-19 10:03:05 51°31.264 3°3.515 -999 1.731396 11.375086 -0.721976
2008-12-19 10:04:05 51°31.366 3°3.783 -999 0.05857 0.315735 -0.721976
2008-12-19 10:05:05 51°31.467 3°4.046 -999 0.084504 0.461106 -0.721976
2008-12-19 10:06:05 51°31.568 3°4.306 -999 0.0667 0.361008 -0.791624
2008-12-19 10:07:05 51°31.672 3°4.564 -999 0.163649 0.918498 -0.791624
2008-12-19 10:08:05 51°31.775 3°4.825 -999 0.075345 0.409483 -0.721976
2008-12-19 10:09:05 51°31.929 3°4.976 -999 0.055894 0.301091 -0.7568
2008-12-19 10:10:05 51°32.11 3°4.939 -999 0.053116 0.285693 -0.826448
2008-12-19 10:11:05 51°32.259 3°4.792 -999 0.055997 0.30165 -0.791624
2008-12-19 10:12:06 51°32.39 3°4.588 -999 0.058158 0.313693 -0.826448
2008-12-19 10:13:05 51°32.512 3°4.359 -999 0.058056 0.313177 -0.791624
2008-12-19 10:14:05 51°32.639 3°4.131 -999 0.051572 0.277358 -0.7568
2008-12-19 10:15:05 51°32.769 3°3.897 -999 0.060834 0.32865 -0.721976
2008-12-19 10:16:05 51°32.895 3°3.659 -999 0.053836 0.289938 -0.721976
2008-12-19 10:17:05 51°32.947 3°3.356 -999 0.058467 0.31563 -0.721976
2008-12-19 10:18:05 51°32.882 3°3.06 -999 0.104984 0.578553 -0.721976
2008-12-19 10:19:05 51°32.792 3°2.783 -999 0.145225 0.811857 -0.721976
2008-12-19 10:20:05 51°32.718 3°2.489 -999 0.13658 0.761452 -0.721976
2008-12-19 10:21:05 51°32.648 3°2.191 -999 0.083783 0.457845 -0.721976
2008-12-19 10:22:05 51°32.57 3°1.898 -999 0.100764 0.55463 -0.687152
2008-12-19 10:23:05 51°32.484 3°1.608 -999 0.3475 2.03611 -0.721976
2008-12-19 10:24:05 51°32.394 3°1.331 -999 0.078329 0.427125 -0.791624
2008-12-19 10:25:05 51°32.301 3°1.045 -999 0.358001 2.101933 -0.791624
2008-12-19 10:26:05 51°32.208 3°0.759 -999 0.123098 0.683542 -0.7568
2008-12-19 10:27:05 51°32.115 3°0.473 -999 0.078844 0.430182 -0.7568
2008-12-19 10:28:05 51°32.022 3°0.187 -999 0.55293 3.338457 -0.7568
2008-12-19 10:29:05 51°31.931 2°59.906 -999 0.235289 1.349123 -0.791624
2008-12-19 10:30:05 51°31.839 2°59.643 -999 0.180941 1.023493 -0.791624
2008-12-19 10:31:05 51°31.746 2°59.364 -999 0.107557 0.594093 -0.861272
2008-12-19 10:32:05 51°31.651 2°59.078 -999 0.122892 0.682714 -0.861272
2008-12-19 10:33:05 51°31.558 2°58.803 -999 0.230039 1.317939 -0.861272
2008-12-19 10:34:05 51°31.464 2°58.519 -999 0.092531 0.508197 -0.861272
2008-12-19 10:35:05 51°31.371 2°58.233 -999 0.169722 0.957471 -0.826448
2008-12-19 10:36:05 51°31.271 2°57.943 -999 0.121039 0.672263 -0.861272
2008-12-19 10:37:05 51°31.167 2°57.664 -999 0.153048 0.859232 -0.826448
2008-12-19 10:38:05 51°31.063 2°57.38 -999 0.2497 1.437671 -0.826448
2008-12-19 10:39:05 51°30.958 2°57.098 -999 0.304363 1.772225 -0.861272
2008-12-19 10:40:05 51°30.856 2°56.819 -999 1.201533 7.68932 -0.861272
2008-12-19 10:41:05 51°30.76 2°56.533 -999 0.090267 0.495615 -0.826448
2008-12-19 10:42:05 51°30.663 2°56.248 -999 0.111365 0.616745 -0.791624
2008-12-19 10:43:05 51°30.566 2°55.958 -999 0.108071 0.597755 -0.791624
2008-12-19 10:44:05 51°30.469 2°55.67 -999 0.159017 0.895068 -0.7568
2008-12-19 10:45:05 51°30.371 2°55.378 -999 0.111262 0.616283 -0.721976
2008-12-19 10:46:05 51°30.273 2°55.083 -999 0.115173 0.638904 -0.791624
2008-12-19 10:47:05 51°30.176 2°54.786 -999 0.133287 0.744218 -0.7568
2008-12-19 10:48:05 51°30.078 2°54.489 -999 0.090782 0.49884 -0.721976
2008-12-19 10:49:05 51°29.981 2°54.198 -999 0.121245 0.674286 -0.7568
2008-12-19 10:50:05 51°29.885 2°53.912 -999 0.092943 0.51127 -0.7568
2008-12-19 10:51:05 51°29.789 2°53.619 -999 0.119804 0.666021 -0.721976
2008-12-19 10:52:05 51°29.691 2°53.325 -999 0.127317 0.709708 -0.721976
2008-12-19 10:53:05 51°29.597 2°53.035 -999 0.078329 0.428294 -0.7568
2008-12-19 10:54:05 51°29.5 2°52.751 -999 0.094178 0.51855 -0.7568
2008-12-19 10:55:05 51°29.403 2°52.456 -999 0.086871 0.476868 -0.721976
2008-12-19 10:56:05 51°29.308 2°52.171 -999 0.137712 0.77072 -0.826448
2008-12-19 10:57:05 51°29.211 2°51.875 -999 0.269568 1.561292 -0.826448
2008-12-19 10:58:05 51°29.113 2°51.578 -999 0.143888 0.807027 -0.791624
2008-12-19 10:59:05 51°29.015 2°51.287 -999 0.138639 0.776337 -0.791624
2008-12-19 11:00:05 51°28.919 2°50.999 -999 0.355222 2.091461 -0.791624
2008-12-19 11:01:05 51°28.822 2°50.715 -999 0.117231 0.651734 -0.826448
2008-12-19 11:02:05 51°28.725 2°50.42 -999 0.087591 0.481279 -0.791624
2008-12-19 11:03:05 51°28.629 2°50.13 -999 0.149445 0.840154 -0.7568
2008-12-19 11:04:05 51°28.533 2°49.842 -999 0.13411 0.750191 -0.721976
2008-12-19 11:05:05 51°28.437 2°49.554 -999 0.135551 0.75866 -0.7568
2008-12-19 11:06:05 51°28.344 2°49.265 -999 0.075242 0.411323 -0.7568
2008-12-19 11:07:05 51°28.247 2°48.974 -999 0.175794 0.996347 -0.7568
2008-12-19 11:08:05 51°28.15 2°48.679 -999 0.071228 0.388708 -0.687152
2008-12-19 11:09:05 51°28.055 2°48.384 -999 0.264009 1.529163 -0.687152
2008-12-19 11:10:05 51°27.962 2°48.095 -999 0.129376 0.722991 -0.687152
2008-12-19 11:11:05 51°27.864 2°47.811 -999 0.610505 3.726004 -0.721976
2008-12-19 11:12:05 51°27.769 2°47.526 -999 0.155621 0.877261 -0.721976
2008-12-19 11:13:05 51°27.668 2°47.234 -999 0.132669 0.74238 -0.687152
2008-12-19 11:14:05 51°27.562 2°46.946 -999 0.118157 0.657895 -0.687152
2008-12-19 11:15:05 51°27.45 2°46.663 -999 0.084195 0.462487 -0.652328
2008-12-19 11:16:05 51°27.335 2°46.379 -999 0.244142 1.408855 -0.652328
2008-12-19 11:17:05 51°27.23 2°46.089 -999 0.099632 0.550944 -0.652328
2008-12-19 11:18:05 51°27.126 2°45.79 -999 0.138742 0.778306 -0.687152
2008-12-19 11:19:05 51°27.026 2°45.49 -999 0.107248 0.594951 -0.652328
2008-12-19 11:20:05 51°26.927 2°45.194 -999 0.093663 0.516801 -0.687152
2008-12-19 11:21:05 51°26.826 2°44.901 -999 0.09212 0.508018 -0.617504
2008-12-19 11:22:05 51°26.727 2°44.608 -999 0.085327 0.469203 -0.617504
2008-12-19 11:23:05 51°26.627 2°44.317 -999 0.100867 0.558379 -0.617504
2008-12-19 11:24:05 51°26.526 2°44.021 -999 0.092634 0.511103 -0.652328
2008-12-19 11:25:05 51°26.426 2°43.719 -999 0.091605 0.505224 -0.617504
2008-12-19 11:26:05 51°26.325 2°43.42 -999 0.079152 0.43423 -0.652328
2008-12-19 11:27:05 51°26.357 2°43.139 -999 0.085327 0.469379 -0.652328
2008-12-19 11:28:05 51°26.524 2°43.033 -999 0.074007 0.405057 -0.617504
2008-12-19 11:29:05 51°26.692 2°42.925 -999 0.075653 0.414435 -0.687152
2008-12-19 11:30:05 51°26.867 2°42.811 -999 0.053219 0.28845 -0.687152
2008-12-19 11:31:05 51°27.043 2°42.694 -999 0.0561 0.304511 -0.687152
2008-12-19 11:32:05 51°27.221 2°42.582 -999 0.065568 0.357531 -0.617504
2008-12-19 11:33:05 51°27.394 2°42.471 -999 0.054042 0.29306 -0.58268
2008-12-19 11:34:05 51°27.57 2°42.362 -999 0.059805 0.325258 -0.58268
2008-12-19 11:35:05 51°27.719 2°42.411 -999 1.087606 6.939227 -0.617504
2008-12-19 11:36:05 51°27.798 2°42.664 -999 0.096957 0.536407 -0.547855
2008-12-19 11:37:05 51°27.881 2°42.922 -999 1.306205 8.457832 -0.58268
2008-12-19 11:38:05 51°27.966 2°43.176 -999 0.110233 0.613207 -0.58268
2008-12-19 11:39:05 51°28.051 2°43.437 -999 0.087797 0.483982 -0.58268
2008-12-19 11:40:05 51°28.13 2°43.698 -999 0.072669 0.397932 -0.547855
2008-12-19 11:41:05 51°28.216 2°43.953 -999 0.070302 0.384518 -0.93092
2008-12-19 11:42:05 51°28.308 2°44.207 -999 0.049514 0.268136 -0.896096
2008-12-19 11:43:05 51°28.4 2°44.46 -999 0.105293 0.584809 -0.93092
2008-12-19 11:44:05 51°28.493 2°44.713 -999 0.54325 3.299137 -0.896096
2008-12-19 11:45:05 51°28.584 2°44.97 -999 0.069273 0.378926 -0.861272
2008-12-19 11:46:05 51°28.675 2°45.226 -999 0.129685 0.727088 -0.896096
2008-12-19 11:47:05 51°28.764 2°45.478 -999 0.077506 0.425666 -0.896096
2008-12-19 11:48:05 51°28.855 2°45.728 -999 1.733979 11.513017 -0.93092
2008-12-19 11:49:05 51°28.942 2°45.979 -999 0.412159 2.46003 -0.861272
2008-12-19 11:50:05 51°29.029 2°46.227 -999 1.509214 9.904033 -0.896096
2008-12-19 11:51:05 51°29.112 2°46.483 -999 0.134213 0.75401 -0.93092
2008-12-19 11:52:05 51°29.201 2°46.733 -999 0.887029 5.581213 -0.791624
2008-12-19 11:53:05 51°29.286 2°46.987 -999 0.079564 0.43754 -0.721976
2008-12-19 11:54:05 51°29.373 2°47.239 -999 0.093252 0.515921 -0.826448
2008-12-19 11:55:05 51°29.457 2°47.494 -999 0.051572 0.279951 -0.861272
2008-12-19 11:56:05 51°29.543 2°47.746 -999 0.323306 1.902614 -0.861272
2008-12-19 11:57:05 51°29.629 2°47.999 -999 0.148931 0.841143 -0.861272
2008-12-19 11:58:05 51°29.717 2°48.251 -999 0.080285 0.441912 -0.826448
2008-12-19 11:59:05 51°29.805 2°48.507 -999 0.207703 1.192791 -0.861272
2008-12-19 12:00:05 51°29.889 2°48.763 -999 0.280686 1.63867 -0.861272
2008-12-19 12:01:05 51°29.978 2°49.016 -999 0.0879 0.485618 -0.861272
2008-12-19 12:02:05 51°30.062 2°49.274 -999 0.064436 0.352204 -0.826448
2008-12-19 12:03:05 51°30.148 2°49.53 -999 0.060217 0.328439 -0.826448
2008-12-19 12:04:05 51°30.233 2°49.788 -999 1.52242 10.011851 -0.826448
2008-12-19 12:05:05 51°30.316 2°50.049 -999 0.127009 0.712615 -0.7568
2008-12-19 12:06:05 51°30.393 2°50.315 -999 0.057335 0.312392 -0.791624
2008-12-19 12:07:05 51°30.472 2°50.575 -999 0.101073 0.561692 -0.896096
2008-12-19 12:08:05 51°30.549 2°50.84 -999 0.150681 0.852449 -0.826448
2008-12-19 12:09:05 51°30.631 2°51.102 -999 0.07164 0.393118 -0.826448
2008-12-19 12:10:05 51°30.707 2°51.367 -999 0.091708 0.507851 -1.000568
2008-12-19 12:11:05 51°30.785 2°51.628 -999 0.049617 0.269453 -0.965744
2008-12-19 12:12:05 51°30.864 2°51.886 -999 0.090782 0.502623 -0.896096
2008-12-19 12:13:05 51°30.944 2°52.141 -999 0.075962 0.417859 -0.826448
2008-12-19 12:14:05 51°31.022 2°52.409 -999 0.086768 0.479652 -0.826448
2008-12-19 12:15:05 51°31.079 2°52.609 -999 0.098706 0.548388 -0.861272
2008-12-19 12:16:05 51°31.113 2°52.753 -999 0.060937 0.332872 -0.861272
2008-12-19 12:17:05 51°31.182 2°52.99 -999 0.165708 0.942353 -0.896096
2008-12-19 12:18:05 51°31.26 2°53.245 -999 0.138536 0.781057 -0.896096
2008-12-19 12:19:05 51°31.33 2°53.51 -999 0.342455 2.0263 -0.93092
2008-12-19 12:20:05 51°31.386 2°53.779 -999 1.542747 10.170772 -0.896096
2008-12-19 12:21:05 51°31.418 2°54.067 -999 0.07977 0.43977 -0.93092
2008-12-19 12:22:05 51°31.412 2°54.361 -999 0.082446 0.455212 -0.896096
2008-12-19 12:23:05 51°31.394 2°54.657 -999 0.058879 0.321527 -0.93092
2008-12-19 12:24:05 51°31.375 2°54.952 -999 0.167252 0.952238 -0.896096
2008-12-19 12:25:05 51°31.356 2°55.251 -999 0.062378 0.341271 -0.896096
2008-12-19 12:26:05 51°31.342 2°55.547 -999 1.330752 8.67078 -0.896096
2008-12-19 12:27:05 51°31.317 2°55.842 -999 0.550871 3.361625 -0.861272
2008-12-19 12:28:05 51°31.289 2°56.139 -999 0.707644 4.394253 -0.861272
2008-12-19 12:29:05 51°31.258 2°56.435 -999 0.130302 0.733466 -0.861272
2008-12-19 12:30:05 51°31.249 2°56.725 -999 0.070714 0.388523 -0.896096
2008-12-19 12:31:05 51°31.286 2°56.999 -999 0.097883 0.544188 -0.861272
2008-12-19 12:32:05 51°31.366 2°57.245 -999 0.076786 0.423128 -0.861272
2008-12-19 12:33:05 51°31.466 2°57.471 -999 0.437078 2.627977 -0.896096
2008-12-19 12:34:05 51°31.572 2°57.688 -999 0.063922 0.350196 -0.861272
2008-12-19 12:35:05 51°31.684 2°57.899 -999 0.069582 0.382275 -0.861272
2008-12-19 12:36:05 51°31.8 2°58.107 -999 0.104367 0.582135 -0.861272
2008-12-19 12:37:05 51°31.913 2°58.315 -999 0.081828 0.452163 -0.896096
2008-12-19 12:38:05 51°32.032 2°58.517 -999 0.08543 0.472903 -0.826448
2008-12-19 12:39:05 51°32.156 2°58.706 -999 0.075036 0.413457 -0.93092
2008-12-19 12:40:05 51°32.283 2°58.897 -999 0.065671 0.360264 -0.93092
2008-12-19 12:41:05 51°32.409 2°59.083 -999 0.068964 0.378887 -0.896096
2008-12-19 12:42:05 51°32.543 2°59.255 -999 0.678491 4.204637 -0.93092
2008-12-19 12:43:05 51°32.679 2°59.425 -999 0.103749 0.578935 -0.896096
2008-12-19 12:44:05 51°32.811 2°59.602 -999 0.063922 0.350513 -0.791624
2008-12-19 12:45:05 51°32.941 2°59.769 -999 0.073595 0.405407 -0.93092
2008-12-19 12:46:05 51°33.074 2°59.941 -999 0.057335 0.313363 -0.896096
2008-12-19 12:47:05 51°33.21 3°0.103 -999 0.393832 2.355549 -0.896096
2008-12-19 12:48:05 51°33.348 3°0.26 -999 0.102514 0.572 -0.826448
2008-12-19 12:49:05 51°33.492 3°0.398 -999 0.051984 0.283392 -0.93092
2008-12-19 12:50:05 51°33.644 3°0.519 -999 0.215114 1.243114 -0.861272
2008-12-19 12:51:05 51°33.783 3°0.634 -999 0.062481 0.342537 -1.000568
2008-12-19 12:52:05 51°33.925 3°0.749 -999 0.098089 0.546479 -0.861272
2008-12-19 12:53:05 51°34.071 3°0.878 -999 0.148622 0.843279 -0.965744
2008-12-19 12:54:05 51°34.224 3°0.98 -999 0.079976 0.442217 -0.896096
2008-12-19 12:55:05 51°34.375 3°0.942 -999 0.052704 0.287674 -0.861272
2008-12-19 12:56:05 51°34.53 3°0.855 -999 0.058364 0.319454 -0.896096
2008-12-19 12:57:05 51°34.687 3°0.759 -999 0.089135 0.494987 -0.896096
2008-12-19 12:58:05 51°34.843 3°0.63 -999 0.059085 0.323563 -0.896096
2008-12-19 12:59:05 51°34.971 3°0.419 -999 0.061349 0.336342 -0.896096
2008-12-19 13:00:05 51°35.09 3°0.196 -999 0.069376 0.381923 -0.93092
2008-12-19 13:01:05 51°35.211 2°59.971 -999 0.062069 0.340526 -0.93092
2008-12-19 13:02:05 51°35.331 2°59.753 -999 0.051881 0.283215 -0.93092
2008-12-19 13:03:05 51°35.458 2°59.53 -999 0.070096 0.386097 -0.896096
2008-12-19 13:04:05 51°35.584 2°59.311 -999 0.058467 0.320232 -0.93092
2008-12-19 13:05:05 51°35.661 2°59.038 -999 0.095413 0.531599 -0.896096
2008-12-19 13:06:05 51°35.593 2°58.735 -999 0.081828 0.453332 -0.896096
2008-12-19 13:07:05 51°35.479 2°58.443 -999 0.549018 3.361031 -0.93092
2008-12-19 13:08:05 51°35.37 2°58.142 -999 0.065568 0.36054 -0.93092
2008-12-19 13:09:05 51°35.26 2°57.832 -999 0.07164 0.395092 -0.896096
2008-12-19 13:10:05 51°35.153 2°57.53 -999 0.084298 0.467705 -0.896096
2008-12-19 13:11:05 51°35.044 2°57.218 -999 0.083269 0.461752 -0.93092
2008-12-19 13:12:05 51°34.937 2°56.907 -999 0.106013 0.593543 -0.896096
2008-12-19 13:13:05 51°34.827 2°56.598 -999 0.119599 0.673061 -0.896096
2008-12-19 13:14:05 51°34.721 2°56.289 -999 0.085739 0.476077 -0.93092
2008-12-19 13:15:05 51°34.614 2°55.982 -999 0.100662 0.562464 -0.896096
2008-12-19 13:16:05 51°34.509 2°55.677 -999 0.069685 0.384159 -0.93092
2008-12-19 13:17:05 51°34.404 2°55.369 -999 0.083063 0.460767 -0.93092
2008-12-19 13:18:05 51°34.299 2°55.067 -999 0.076065 0.42065 -0.896096
2008-12-19 13:19:05 51°34.196 2°54.756 -999 0.151504 0.862183 -0.93092
2008-12-19 13:20:05 51°34.091 2°54.448 -999 0.058879 0.322964 -0.896096
2008-12-19 13:21:05 51°33.987 2°54.137 -999 0.088621 0.492889 -0.93092
2008-12-19 13:22:05 51°33.885 2°53.831 -999 0.078741 0.436075 -0.965744
2008-12-19 13:23:05 51°33.782 2°53.531 -999 0.173324 0.99313 -0.896096
2008-12-19 13:24:05 51°33.68 2°53.225 -999 0.174148 0.998064 -0.965744
2008-12-19 13:25:05 51°33.577 2°52.919 -999 0.282642 1.662306 -0.896096
2008-12-19 13:26:05 51°33.474 2°52.606 -999 0.067832 0.373824 -0.896096
2008-12-19 13:27:05 51°33.369 2°52.296 -999 0.122583 0.691218 -0.896096
2008-12-19 13:28:05 51°33.265 2°51.983 -999 0.097883 0.546794 -0.896096
2008-12-19 13:29:05 51°33.161 2°51.666 -999 0.116614 0.6562 -0.896096
2008-12-19 13:30:05 51°33.057 2°51.35 -999 0.086048 0.478287 -0.896096
2008-12-19 13:31:05 51°32.951 2°51.039 -999 0.237554 1.384159 -0.861272
2008-12-19 13:32:05 51°32.842 2°50.732 -999 0.097986 0.547462 -0.791624
2008-12-19 13:33:05 51°32.732 2°50.42 -999 0.076786 0.425072 -0.791624
2008-12-19 13:34:05 51°32.622 2°50.109 -999 0.088518 0.492624 -0.861272
2008-12-19 13:35:05 51°32.512 2°49.804 -999 0.071743 0.396232 -0.861272
2008-12-19 13:36:05 51°32.403 2°49.499 -999 0.134625 0.762605 -0.861272
2008-12-19 13:37:05 51°32.294 2°49.192 -999 0.100559 0.562568 -0.861272
2008-12-19 13:38:05 51°32.185 2°48.887 -999 0.079873 0.442858 -0.861272
2008-12-19 13:39:05 51°32.075 2°48.582 -999 0.095722 0.534458 -0.861272
2008-12-19 13:40:05 51°31.968 2°48.274 -999 1.235977 8.048137 -0.861272
2008-12-19 13:41:05 51°31.86 2°47.969 -999 0.070714 0.390491 -0.896096
2008-12-19 13:42:05 51°31.752 2°47.661 -999 0.082034 0.455423 -0.896096
2008-12-19 13:43:05 51°31.648 2°47.348 -999 0.05785 0.317468 -1.000568
2008-12-19 13:44:05 51°31.54 2°47.043 -999 0.120216 0.67782 -1.000568
2008-12-19 13:45:05 51°31.433 2°46.736 -999 0.194116 1.119767 -0.965744
2008-12-19 13:46:05 51°31.326 2°46.424 -999 0.073801 0.40825 -1.000568
2008-12-19 13:47:05 51°31.222 2°46.113 -999 0.061658 0.339061 -0.965744
2008-12-19 13:48:05 51°31.115 2°45.807 -999 0.064848 0.357193 -0.965744
2008-12-19 13:49:05 51°31.008 2°45.502 -999 0.118364 0.667081 -0.93092
2008-12-19 13:50:05 51°30.903 2°45.201 -999 0.264215 1.550076 -0.896096
2008-12-19 13:51:05 51°30.797 2°44.899 -999 0.05857 0.321673 -0.93092
2008-12-19 13:52:05 51°30.691 2°44.597 -999 0.073184 0.40479 -0.965744
2008-12-19 13:53:05 51°30.583 2°44.291 -999 0.087489 0.487137 -0.965744
2008-12-19 13:54:05 51°30.476 2°43.983 -999 0.095104 0.531258 -0.93092
2008-12-19 13:55:05 51°30.369 2°43.675 -999 0.086048 0.478796 -0.93092
2008-12-19 13:56:05 51°30.261 2°43.363 -999 0.070508 0.389561 -0.93092
2008-12-19 13:57:05 51°30.155 2°43.053 -999 0.064951 0.357919 -0.965744
2008-12-19 13:58:05 51°30.045 2°42.748 -999 0.057335 0.314771 -0.93092
2008-12-19 13:59:05 51°29.928 2°42.452 -999 0.055792 0.306061 -0.93092
2008-12-19 14:00:05 51°29.809 2°42.157 -999 0.177133 1.017648 -0.93092
2008-12-19 14:01:05 51°29.688 2°41.865 -999 0.12423 0.701989 -0.93092
2008-12-19 14:02:05 51°29.565 2°41.581 -999 0.074316 0.411439 -0.826448
2008-12-19 14:03:05 51°29.417 2°41.314 -999 0.080079 0.444529 -0.826448
2008-12-19 14:04:05 51°29.268 2°41.047 -999 0.06917 0.38207 -0.861272
2008-12-19 14:05:05 51°29.119 2°40.782 -999 0.093972 0.524895 -0.861272
2008-12-19 14:06:05 51°28.973 2°40.512 -999 0.70816 4.425034 -0.896096
2008-12-19 14:07:05 51°28.827 2°40.241 -999 0.101588 0.5692 -0.861272
2008-12-19 14:08:05 51°28.682 2°39.972 -999 0.080182 0.445201 -0.896096
2008-12-19 14:09:05 51°28.52 2°39.735 -999 0.051675 0.28303 -0.896096
2008-12-19 14:10:05 51°28.314 2°39.642 -999 0.204512 1.183728 -0.826448
2008-12-19 14:11:05 51°28.108 2°39.724 -999 0.300452 1.776919 -0.826448
2008-12-19 14:12:05 51°27.91 2°39.853 -999 0.105602 0.59272 -0.791624
2008-12-19 14:13:05 51°27.712 2°39.983 -999 0.091193 0.508869 -0.791624
2008-12-19 14:14:05 51°27.517 2°40.117 -999 0.128964 0.730224 -0.791624
2008-12-19 14:15:05 51°27.325 2°40.252 -999 0.153048 0.873364 -0.652328
2008-12-19 14:16:05 51°27.135 2°40.398 -999 1.163179 7.547211 -0.861272
2008-12-19 14:17:05 51°26.945 2°40.537 -999 0.183411 1.05628 -0.896096
2008-12-19 14:18:05 51°26.756 2°40.672 -999 0.176 1.011505 -1.035392
2008-12-19 14:19:05 51°26.571 2°40.804 -999 0.076374 0.423314 -0.93092
2008-12-19 14:20:05 51°26.387 2°40.935 -999 0.076271 0.422648 -0.93092
2008-12-19 14:21:05 51°26.2 2°41.067 -999 0.351825 2.099858 -0.896096
2008-12-19 14:22:05 51°26.017 2°41.202 -999 0.07658 0.424365 -0.861272
2008-12-19 14:23:05 51°25.833 2°41.339 -999 0.077506 0.429781 -0.861272
2008-12-19 14:24:05 51°25.651 2°41.477 -999 0.098192 0.549533 -0.896096
2008-12-19 14:25:05 51°25.469 2°41.62 -999 0.103646 0.581168 -0.896096
2008-12-19 14:26:05 51°25.287 2°41.765 -999 0.074624 0.413319 -0.896096
2008-12-19 14:27:05 51°25.104 2°41.905 -999 1.145445 7.421159 -0.896096
2008-12-19 14:28:05 51°24.92 2°42.04 -999 0.089444 0.498598 -0.896096
2008-12-19 14:29:05 51°24.737 2°42.182 -999 0.150578 0.85843 -0.861272
2008-12-19 14:30:05 51°24.551 2°42.326 -999 0.95979 6.132362 -0.861272
2008-12-19 14:31:05 51°24.366 2°42.47 -999 0.077197 0.427916 -0.896096
2008-12-19 14:32:05 51°24.184 2°42.612 -999 0.059394 0.326473 -0.896096
2008-12-19 14:33:05 51°23.999 2°42.753 -999 0.062481 0.34401 -0.896096
2008-12-19 14:34:05 51°23.817 2°42.887 -999 0.07658 0.42435 -0.896096
2008-12-19 14:35:05 51°23.636 2°43.02 -999 0.073287 0.405328 -0.896096
2008-12-19 14:36:05 51°23.458 2°43.151 -999 0.063613 0.350318 -0.896096
2008-12-19 14:37:05 51°23.28 2°43.281 -999 0.081725 0.453916 -0.896096
2008-12-19 14:38:05 51°23.101 2°43.414 -999 0.154592 0.882129 -0.826448
2008-12-19 14:39:05 51°22.911 2°43.52 -999 0.11929 0.673019 -0.861272
2008-12-19 14:40:05 51°22.72 2°43.616 -999 0.122172 0.689873 -0.896096
2008-12-19 14:41:05 51°22.529 2°43.718 -999 0.067935 0.37504 -0.896096
2008-12-19 14:42:05 51°22.333 2°43.808 -999 1.136785 7.358166 -0.861272
2008-12-19 14:43:05 51°22.144 2°43.919 -999 0.063201 0.347931 -0.861272
2008-12-19 14:44:05 51°21.967 2°44.075 -999 0.081005 0.449818 -0.861272
2008-12-19 14:45:05 51°21.799 2°44.246 -999 0.178162 1.023746 -0.861272
2008-12-19 14:46:05 51°21.628 2°44.414 -999 0.066597 0.367299 -0.861272
2008-12-19 14:47:05 51°21.455 2°44.581 -999 0.056306 0.308881 -0.861272
2008-12-19 14:48:05 51°21.285 2°44.75 -999 0.091914 0.512879 -0.861272
2008-12-19 14:49:05 51°21.118 2°44.915 -999 0.063819 0.351399 -0.861272
2008-12-19 14:50:05 51°20.952 2°45.075 -999 0.069067 0.381393 -0.861272
2008-12-19 14:51:05 51°20.789 2°45.236 -999 0.076477 0.423859 -0.826448
2008-12-19 14:52:05 51°20.64 2°45.423 -999 0.209556 1.214446 -0.826448
2008-12-19 14:53:05 51°20.493 2°45.617 -999 0.116511 0.656561 -0.826448
2008-12-19 14:54:05 51°20.346 2°45.813 -999 0.103132 0.578196 -0.791624
2008-12-19 14:55:05 51°20.197 2°46.012 -999 0.080388 0.446297 -0.791624
2008-12-19 14:56:05 51°20.044 2°46.209 -999 1.329 8.715865 -0.826448
2008-12-19 14:57:05 51°19.893 2°46.408 -999 0.163546 0.936141 -0.826448
2008-12-19 14:58:05 51°19.743 2°46.608 -999 0.086151 0.479719 -0.826448
2008-12-19 14:59:05 51°19.593 2°46.802 -999 0.38786 2.328923 -0.826448
2008-12-19 15:00:05 51°19.441 2°46.997 -999 0.098295 0.550072 -0.791624
2008-12-19 15:01:05 51°19.29 2°47.193 -999 0.091708 0.511815 -0.826448
2008-12-19 15:02:05 51°19.138 2°47.389 -999 0.165605 0.948573 -0.861272
2008-12-19 15:03:05 51°18.984 2°47.588 -999 0.177956 1.022953 -0.826448
2008-12-19 15:04:05 51°18.829 2°47.783 -999 0.060011 0.330068 -0.861272
2008-12-19 15:05:05 51°18.674 2°47.977 -999 0.488978 2.980387 -0.861272
2008-12-19 15:06:05 51°18.518 2°48.167 -999 0.067626 0.373313 -0.861272
2008-12-19 15:07:05 51°18.361 2°48.361 -999 0.073389 0.406303 -0.826448
2008-12-19 15:08:05 51°18.21 2°48.564 -999 0.061143 0.336572 -0.826448
2008-12-19 15:09:05 51°18.046 2°48.748 -999 0.359855 2.151237 -0.791624
2008-12-19 15:10:05 51°17.876 2°48.915 -999 0.118261 0.667325 -0.791624
2008-12-19 15:11:05 51°17.697 2°49.061 -999 0.090267 0.503666 -0.826448
2008-12-19 15:12:05 51°17.52 2°49.209 -999 2.020193 13.740721 -0.791624
2008-12-19 15:13:05 51°17.345 2°49.365 -999 0.062584 0.344778 -0.826448
2008-12-19 15:14:05 51°17.169 2°49.515 -999 0.111983 0.630384 -0.791624
2008-12-19 15:15:05 51°16.994 2°49.67 -999 0.164884 0.94459 -0.7568
2008-12-19 15:16:05 51°16.816 2°49.824 -999 0.469 2.852094 -0.721976
2008-12-19 15:17:05 51°16.64 2°49.983 -999 0.055174 0.302903 -0.7568
2008-12-19 15:18:05 51°16.469 2°50.142 -999 0.055895 0.307056 -0.7568
2008-12-19 15:19:05 51°16.298 2°50.313 -999 0.592172 3.657595 -0.7568
2008-12-19 15:20:05 51°16.174 2°50.559 -999 0.053322 0.292484 -0.7568
2008-12-19 15:21:05 51°16.098 2°50.853 -999 0.074213 0.411241 -0.7568
2008-12-19 15:22:05 51°16.022 2°51.147 -999 0.313938 1.863012 -0.7568
2008-12-19 15:23:05 51°15.913 2°51.406 -999 0.684672 4.272563 -0.791624
2008-12-19 15:24:05 51°15.773 2°51.624 -999 0.084195 0.468758 -0.826448
2008-12-19 15:25:05 51°15.631 2°51.837 -999 0.601957 3.723791 -0.826448
2008-12-19 15:26:05 51°15.507 2°52.08 -999 0.081005 0.450508 -0.861272
2008-12-19 15:27:05 51°15.398 2°52.344 -999 0.13514 0.767654 -0.861272
2008-12-19 15:28:05 51°15.298 2°52.613 -999 0.094693 0.52975 -0.861272
2008-12-19 15:29:05 51°15.196 2°52.881 -999 0.063407 0.349774 -0.826448
2008-12-19 15:30:05 51°15.096 2°53.15 -999 0.093561 0.523264 -0.826448
2008-12-19 15:31:05 51°14.999 2°53.425 -999 0.067318 0.37204 -0.826448
2008-12-19 15:32:05 51°14.893 2°53.705 -999 0.067421 0.372614 -0.826448
2008-12-19 15:33:05 51°14.787 2°53.987 -999 1.022252 6.575684 -0.826448
2008-12-19 15:34:05 51°14.682 2°54.268 -999 0.072772 0.403377 -0.7568
2008-12-19 15:35:05 51°14.581 2°54.551 -999 0.119701 0.676527 -0.791624
2008-12-19 15:36:05 51°14.476 2°54.837 -999 0.078535 0.436535 -0.791624
2008-12-19 15:37:05 51°14.359 2°55.101 -999 0.072875 0.403916 -0.7568
2008-12-19 15:38:05 51°14.249 2°55.26 -999 0.062687 0.345882 -0.7568
2008-12-19 15:39:05 51°14.158 2°55.371 -999 0.097368 0.54578 -0.7568